Byron, Minnesota
Current Conditions -  °F | °C
As of 3:13 PM on Tuesday 25 Nov 2014 (Local Time) from K9MN Reporting Station
Overcast Overcast  
Wind Chill: 20°   Ceiling: 6000
Heat Index: 26°   Visibility: 10mi
Dew Point: 13°   Wind: 6mph
Humidity: 56%   Direction: 250°WSW
Pressure: 30.05"   Gusts: NA
Location:  44.03°N, 92.65°W
Report Text: K9MN 252113Z AUTO 25005KT 10SM OVC060 M03/M11 A3005 RMK AO1 T10321108
Loading
Personal Weather Stations






























Interactive Weather Map New forecast layout! Learn more

10-Day Weather Forecast

Advertisements
Track Severe Weather on mobile